Time;durP1;ratioP1;P1;durP2;ratioP2;P2;SDS_P1;SDS_P2;PMS_P1;PMS_P2;Temp;Humidity;BMP_temperature;BMP_pressure;BME280_temperature;BME280_humidity;BME280_pressure;Samples;Min_cycle;Max_cycle;Signal;HPM_P1;HPM_P2
2021/07/29 00:00:09;;;;;;;1.27;0.70;;;22.80;40.70;;;;;;4359300;32;20177;-38
2021/07/29 00:02:35;;;;;;;3.85;0.95;;;22.80;40.60;;;;;;4359122;32;20070;-39
2021/07/29 00:05:02;;;;;;;4.72;0.80;;;22.90;40.60;;;;;;4359090;32;20478;-39
2021/07/29 00:07:28;;;;;;;2.85;0.80;;;22.90;40.60;;;;;;4359008;32;20557;-39
2021/07/29 00:09:54;;;;;;;2.25;1.10;;;22.90;40.60;;;;;;4359104;32;20469;-38
2021/07/29 00:12:21;;;;;;;4.10;0.70;;;22.90;40.80;;;;;;4358962;32;20471;-39
2021/07/29 00:14:50;;;;;;;2.37;0.90;;;22.90;40.90;;;;;;4359222;32;20590;-38
2021/07/29 00:17:28;;;;;;;2.72;0.80;;;22.80;40.80;;;;;;4359564;32;20077;-38
2021/07/29 00:19:55;;;;;;;3.95;0.70;;;22.70;40.90;;;;;;4359183;32;20128;-39
2021/07/29 00:22:21;;;;;;;1.35;0.73;;;22.50;41.10;;;;;;4345393;32;20114;-39
2021/07/29 00:24:48;;;;;;;1.73;0.80;;;22.40;41.40;;;;;;4345152;32;20518;-38
2021/07/29 00:27:14;;;;;;;2.15;0.70;;;22.20;41.80;;;;;;4358989;32;20074;-38
2021/07/29 00:29:40;;;;;;;1.52;0.70;;;22.10;42.10;;;;;;4359488;32;20156;-38
2021/07/29 00:32:07;;;;;;;1.95;0.80;;;22.00;42.20;;;;;;4345105;32;20089;-38
2021/07/29 00:34:34;;;;;;;2.05;0.98;;;22.00;42.40;;;;;;4345406;32;20059;-38
2021/07/29 00:37:00;;;;;;;4.65;1.17;;;22.00;42.40;;;;;;4341314;33;20465;-37
2021/07/29 00:39:29;;;;;;;2.08;1.10;;;22.00;42.40;;;;;;4341523;33;20165;-37
2021/07/29 00:41:55;;;;;;;2.08;0.90;;;21.90;42.40;;;;;;4341390;33;20127;-38
2021/07/29 00:44:21;;;;;;;3.33;1.12;;;21.90;42.50;;;;;;4329368;33;20067;-38
2021/07/29 00:46:48;;;;;;;3.62;0.90;;;21.90;42.00;;;;;;4341455;33;20448;-38
2021/07/29 00:49:14;;;;;;;3.17;0.80;;;22.00;42.20;;;;;;4341323;33;20189;-39
2021/07/29 00:51:41;;;;;;;2.08;1.00;;;22.10;42.00;;;;;;4323553;33;20507;-38
2021/07/29 00:54:07;;;;;;;1.55;0.70;;;22.20;42.00;;;;;;4326386;33;20098;-37
2021/07/29 00:56:35;;;;;;;1.17;0.73;;;22.30;41.10;;;;;;4314112;33;20448;-38
2021/07/29 00:59:01;;;;;;;2.95;1.00;;;22.40;40.70;;;;;;4311278;33;20059;-38
2021/07/29 01:01:28;;;;;;;4.62;1.70;;;22.40;40.20;;;;;;4341193;33;20102;-38
2021/07/29 01:03:55;;;;;;;1.23;0.80;;;22.50;40.10;;;;;;4329147;33;20063;-37
2021/07/29 01:06:21;;;;;;;3.15;0.70;;;22.60;40.10;;;;;;4341261;33;20066;-37
2021/07/29 01:09:08;;;;;;;1.75;0.77;;;22.60;39.20;;;;;;4329319;33;20109;-37
2021/07/29 01:11:42;;;;;;;1.98;0.90;;;22.70;38.90;;;;;;4341057;33;20066;-39
2021/07/29 01:14:09;;;;;;;1.30;0.70;;;22.80;38.60;;;;;;4342017;33;20118;-37
2021/07/29 01:16:35;;;;;;;2.10;0.80;;;22.80;38.30;;;;;;4343825;33;20148;-37
2021/07/29 01:19:03;;;;;;;3.00;0.80;;;22.90;38.20;;;;;;4343555;33;20074;-37
2021/07/29 01:21:30;;;;;;;2.75;0.93;;;23.00;37.80;;;;;;4341892;33;20102;-38
2021/07/29 01:23:57;;;;;;;6.97;1.40;;;23.00;37.60;;;;;;4343515;33;20600;-39
2021/07/29 01:26:25;;;;;;;3.90;1.42;;;23.10;37.70;;;;;;4343683;33;20077;-38
2021/07/29 01:28:51;;;;;;;2.20;1.10;;;23.20;37.70;;;;;;4343354;33;20067;-37
2021/07/29 01:31:18;;;;;;;2.85;0.90;;;23.30;37.50;;;;;;4343810;33;20075;-38
2021/07/29 01:33:44;;;;;;;4.00;0.90;;;23.40;37.20;;;;;;4343648;33;20063;-37
2021/07/29 01:36:11;;;;;;;6.62;1.55;;;23.50;37.00;;;;;;4343386;33;20066;-39
2021/07/29 01:38:37;;;;;;;3.75;0.62;;;23.60;37.00;;;;;;4343324;33;20086;-38
2021/07/29 01:41:03;;;;;;;5.82;0.60;;;23.70;36.60;;;;;;4343565;33;20073;-38
2021/07/29 01:43:31;;;;;;;4.60;0.93;;;23.80;36.30;;;;;;4343001;33;20526;-38
2021/07/29 01:45:58;;;;;;;6.97;1.42;;;24.00;36.10;;;;;;4343337;33;20071;-38
2021/07/29 01:48:25;;;;;;;8.75;1.50;;;24.10;35.90;;;;;;4329468;33;20078;-38
2021/07/29 01:50:52;;;;;;;9.82;2.03;;;24.40;35.50;;;;;;4343554;32;20143;-38
2021/07/29 01:53:19;;;;;;;6.43;1.00;;;24.60;35.00;;;;;;4358086;32;20523;-38
2021/07/29 01:55:46;;;;;;;11.77;1.50;;;24.90;34.50;;;;;;4358256;32;20187;-38
2021/07/29 01:58:13;;;;;;;5.70;0.98;;;25.10;34.60;;;;;;4357920;32;20109;-38
2021/07/29 02:00:41;;;;;;;4.55;0.85;;;25.30;34.10;;;;;;4358140;32;20101;-39
2021/07/29 02:03:08;;;;;;;4.90;1.10;;;25.60;33.80;;;;;;4343965;32;20648;-37
2021/07/29 02:05:34;;;;;;;3.80;1.08;;;25.80;33.30;;;;;;4358068;32;20062;-38
2021/07/29 02:08:01;;;;;;;9.68;2.83;;;26.00;33.00;;;;;;4357978;32;20074;-38
2021/07/29 02:10:27;;;;;;;8.50;2.50;;;26.20;32.90;;;;;;4357605;32;20240;-38
2021/07/29 02:12:55;;;;;;;2.08;0.80;;;26.40;33.00;;;;;;4357990;32;20139;-38
2021/07/29 02:15:21;;;;;;;2.10;0.80;;;26.60;33.60;;;;;;4358312;32;20453;-38
2021/07/29 02:17:48;;;;;;;7.28;1.62;;;26.80;33.00;;;;;;4358136;32;20477;-38
2021/07/29 02:20:15;;;;;;;4.00;0.90;;;26.90;33.20;;;;;;4357450;32;20152;-38
2021/07/29 02:22:41;;;;;;;4.85;0.90;;;27.00;32.50;;;;;;4358166;32;20170;-38
2021/07/29 02:25:08;;;;;;;5.93;1.10;;;27.10;31.80;;;;;;4357802;32;20068;-38
2021/07/29 02:27:35;;;;;;;5.15;0.95;;;27.30;31.80;;;;;;4360039;32;20147;-38
2021/07/29 02:30:01;;;;;;;3.72;0.70;;;27.60;31.50;;;;;;4360725;32;20151;-38
2021/07/29 02:32:28;;;;;;;7.22;0.90;;;27.90;31.00;;;;;;4360631;32;20058;-39
2021/07/29 02:34:54;;;;;;;2.87;1.20;;;28.20;30.60;;;;;;4360965;32;20173;-38
2021/07/29 02:37:21;;;;;;;7.47;0.50;;;28.60;30.20;;;;;;4343217;33;20069;-38
2021/07/29 02:39:48;;;;;;;5.47;1.00;;;29.00;29.90;;;;;;4343431;33;20101;-38
2021/07/29 02:42:14;;;;;;;1.00;0.50;;;29.40;29.60;;;;;;4343054;33;20082;-38
2021/07/29 02:44:41;;;;;;;2.17;0.57;;;29.80;29.30;;;;;;4343208;33;20102;-39
2021/07/29 02:47:08;;;;;;;4.40;0.70;;;30.10;29.00;;;;;;4343091;33;20077;-38
2021/07/29 02:49:35;;;;;;;2.15;0.50;;;30.50;28.90;;;;;;4342665;33;20542;-38
2021/07/29 02:52:02;;;;;;;9.18;2.75;;;30.80;28.60;;;;;;4323415;33;20519;-39
2021/07/29 02:54:28;;;;;;;1.92;0.80;;;31.10;28.40;;;;;;4328243;33;20455;-38
2021/07/29 02:56:55;;;;;;;4.85;0.70;;;31.40;28.30;;;;;;4315969;33;20082;-39
2021/07/29 02:59:21;;;;;;;5.40;0.77;;;31.70;28.20;;;;;;4339273;33;20067;-40
2021/07/29 03:01:48;;;;;;;2.87;1.08;;;31.90;28.20;;;;;;4342603;33;20071;-39
2021/07/29 03:04:14;;;;;;;4.50;0.75;;;32.10;28.20;;;;;;4343139;33;20102;-38
2021/07/29 03:06:41;;;;;;;4.87;0.77;;;32.40;28.10;;;;;;4342774;33;20059;-39
2021/07/29 03:09:10;;;;;;;3.35;0.60;;;32.50;28.20;;;;;;4331392;33;20115;-39
2021/07/29 03:11:36;;;;;;;4.53;0.85;;;32.70;28.50;;;;;;4345241;33;20158;-39
2021/07/29 03:14:02;;;;;;;4.53;0.73;;;32.90;28.60;;;;;;4345350;33;20074;-38
2021/07/29 03:16:29;;;;;;;6.22;0.60;;;33.00;28.90;;;;;;4345102;33;20116;-38
2021/07/29 03:18:56;;;;;;;5.72;0.60;;;33.20;28.90;;;;;;4344868;33;20065;-39
2021/07/29 03:21:23;;;;;;;1.80;0.45;;;33.40;28.90;;;;;;4345551;33;20090;-38
2021/07/29 03:23:49;;;;;;;6.20;0.60;;;33.70;28.50;;;;;;4345086;33;20109;-38
2021/07/29 03:26:15;;;;;;;3.15;0.80;;;34.10;28.40;;;;;;4344920;33;20607;-39
2021/07/29 03:28:42;;;;;;;2.95;0.60;;;34.40;28.30;;;;;;4331497;33;20147;-38
2021/07/29 03:31:08;;;;;;;2.05;0.65;;;34.60;28.30;;;;;;4344771;33;20154;-38
2021/07/29 03:33:37;;;;;;;1.77;0.80;;;34.70;28.30;;;;;;4344980;33;20651;-38
2021/07/29 03:36:04;;;;;;;7.18;1.20;;;34.60;28.20;;;;;;4344766;33;20055;-38
2021/07/29 03:38:31;;;;;;;5.68;1.45;;;34.50;28.40;;;;;;4343980;33;20128;-39
2021/07/29 03:40:57;;;;;;;1.80;0.70;;;34.40;28.20;;;;;;4343355;33;20137;-39
2021/07/29 03:43:24;;;;;;;3.05;1.00;;;34.30;28.40;;;;;;4344871;33;20063;-39
2021/07/29 03:45:50;;;;;;;4.78;1.37;;;34.30;28.40;;;;;;4344762;33;20156;-38
2021/07/29 03:48:18;;;;;;;4.15;1.10;;;34.30;28.20;;;;;;4344693;33;20181;-38
2021/07/29 03:50:45;;;;;;;3.33;0.80;;;34.50;27.80;;;;;;4344991;33;20081;-39
2021/07/29 03:53:11;;;;;;;4.90;1.08;;;34.40;27.90;;;;;;4344587;33;20066;-38
2021/07/29 03:55:38;;;;;;;4.03;1.30;;;34.60;28.10;;;;;;4344680;33;20054;-38
2021/07/29 03:58:04;;;;;;;3.20;1.10;;;34.70;27.80;;;;;;4333775;32;20105;-39
2021/07/29 04:00:31;;;;;;;2.75;0.98;;;34.70;27.90;;;;;;4359398;32;20173;-38
2021/07/29 04:02:59;;;;;;;5.07;0.80;;;34.60;27.80;;;;;;4359925;32;20077;-39
2021/07/29 04:05:25;;;;;;;5.30;1.12;;;34.60;27.10;;;;;;4359113;32;20077;-39
2021/07/29 04:07:52;;;;;;;1.55;0.60;;;34.40;26.60;;;;;;4359298;32;20078;-38
2021/07/29 04:10:18;;;;;;;2.65;0.70;;;34.40;26.60;;;;;;4359359;32;20083;-38
2021/07/29 04:12:45;;;;;;;1.35;0.70;;;34.20;26.60;;;;;;4359766;32;20066;-38
2021/07/29 04:15:12;;;;;;;2.83;0.70;;;34.20;26.50;;;;;;4359230;32;20054;-38
2021/07/29 04:17:41;;;;;;;2.97;0.90;;;34.20;26.60;;;;;;4359293;32;20061;-39
2021/07/29 04:20:08;;;;;;;4.18;1.50;;;34.30;26.90;;;;;;4359098;32;20074;-39
2021/07/29 04:22:35;;;;;;;4.57;2.45;;;34.40;27.30;;;;;;4358981;32;20127;-38
2021/07/29 04:25:01;;;;;;;8.75;1.90;;;34.50;27.60;;;;;;4345198;32;20195;-39
2021/07/29 04:27:28;;;;;;;4.97;1.85;;;34.40;27.50;;;;;;4359206;32;20073;-39
2021/07/29 04:29:54;;;;;;;6.03;3.28;;;34.40;27.20;;;;;;4345347;32;20070;-38
2021/07/29 04:32:21;;;;;;;11.27;3.37;;;34.40;28.40;;;;;;4359248;32;20062;-39
2021/07/29 04:34:48;;;;;;;10.00;4.70;;;34.40;28.60;;;;;;4358755;32;20070;-38
2021/07/29 04:37:15;;;;;;;5.57;3.10;;;34.40;28.80;;;;;;4358780;32;20149;-38
2021/07/29 04:39:42;;;;;;;8.15;4.15;;;34.40;28.80;;;;;;4359134;32;20090;-38
2021/07/29 04:42:12;;;;;;;6.60;3.28;;;34.50;28.60;;;;;;4358957;32;20143;-39
2021/07/29 04:44:39;;;;;;;5.78;2.95;;;34.60;28.60;;;;;;4358590;32;20144;-38
2021/07/29 04:47:05;;;;;;;5.93;2.80;;;34.50;28.00;;;;;;4358693;32;20067;-38
2021/07/29 04:49:32;;;;;;;3.87;2.22;;;34.50;27.90;;;;;;4332456;32;20557;-38
2021/07/29 04:51:58;;;;;;;5.75;1.77;;;34.40;27.60;;;;;;4351386;32;20054;-39
2021/07/29 04:54:25;;;;;;;8.85;2.15;;;34.20;27.70;;;;;;4343877;33;20526;-38
2021/07/29 04:56:51;;;;;;;8.27;1.80;;;33.90;28.10;;;;;;4343761;33;20177;-38
2021/07/29 04:59:20;;;;;;;5.47;1.85;;;33.50;28.20;;;;;;4354113;32;20085;-37
2021/07/29 05:01:46;;;;;;;4.15;1.65;;;33.10;28.70;;;;;;4358831;32;20085;-38
2021/07/29 05:04:13;;;;;;;7.20;2.20;;;32.80;29.10;;;;;;4358538;32;20197;-38
2021/07/29 05:06:40;;;;;;;6.30;2.35;;;32.50;29.60;;;;;;4358443;32;20070;-38
2021/07/29 05:09:06;;;;;;;9.25;2.03;;;32.20;29.90;;;;;;4357070;32;20154;-39
2021/07/29 05:11:33;;;;;;;9.43;1.90;;;32.10;30.00;;;;;;4358442;32;20097;-38
2021/07/29 05:13:59;;;;;;;2.17;1.05;;;32.00;30.10;;;;;;4358540;32;20046;-38
2021/07/29 05:16:25;;;;;;;6.00;1.30;;;32.00;30.00;;;;;;4358347;32;20159;-38
2021/07/29 05:18:52;;;;;;;3.72;1.33;;;31.90;29.80;;;;;;4358114;32;20634;-39
2021/07/29 05:21:18;;;;;;;7.37;2.00;;;31.90;29.70;;;;;;4358070;32;20548;-39
2021/07/29 05:23:45;;;;;;;2.67;1.00;;;31.90;29.60;;;;;;4357968;32;20578;-39
2021/07/29 05:26:18;;;;;;;1.83;0.80;;;31.90;29.10;;;;;;4358406;32;20163;-39
2021/07/29 05:28:45;;;;;;;5.57;1.00;;;31.90;29.40;;;;;;4358281;32;20110;-39
2021/07/29 05:31:11;;;;;;;3.83;1.00;;;31.60;29.70;;;;;;4358090;32;20159;-39
2021/07/29 05:33:38;;;;;;;5.22;1.00;;;31.30;30.00;;;;;;4344285;32;20222;-38
2021/07/29 05:36:05;;;;;;;3.90;1.00;;;31.00;30.50;;;;;;4344321;32;20077;-37
2021/07/29 05:38:33;;;;;;;4.65;1.42;;;30.70;31.20;;;;;;4357912;32;20093;-38
2021/07/29 05:41:09;;;;;;;4.60;2.12;;;30.40;31.50;;;;;;4344598;32;20094;-39
2021/07/29 05:43:39;;;;;;;9.48;1.70;;;30.30;32.00;;;;;;4358012;32;20519;-39
2021/07/29 05:46:12;;;;;;;4.35;2.45;;;30.20;32.50;;;;;;4343850;32;20093;-39
2021/07/29 05:48:39;;;;;;;6.87;3.40;;;30.20;33.10;;;;;;4357842;32;20475;-39
2021/07/29 05:51:06;;;;;;;5.05;1.45;;;30.30;33.20;;;;;;4355683;32;20457;-37
2021/07/29 05:53:32;;;;;;;4.32;1.17;;;30.30;33.70;;;;;;4343354;33;20170;-39
2021/07/29 05:55:59;;;;;;;4.07;0.93;;;30.40;32.90;;;;;;4329654;33;20070;-38
2021/07/29 05:58:26;;;;;;;4.53;1.02;;;30.50;32.90;;;;;;4348407;32;20454;-39
2021/07/29 06:00:53;;;;;;;5.78;1.55;;;30.50;32.90;;;;;;4358070;32;20062;-39
2021/07/29 06:03:19;;;;;;;4.47;1.77;;;30.50;33.10;;;;;;4360851;32;20554;-38
2021/07/29 06:05:46;;;;;;;4.37;1.00;;;30.50;33.20;;;;;;4361182;32;20082;-38
2021/07/29 06:08:12;;;;;;;2.28;1.40;;;30.60;33.40;;;;;;4360832;32;20582;-39
2021/07/29 06:10:39;;;;;;;4.15;0.95;;;30.70;33.40;;;;;;4361101;32;20054;-38
2021/07/29 06:13:06;;;;;;;7.70;4.35;;;30.70;33.40;;;;;;4360681;32;20489;-39
2021/07/29 06:15:33;;;;;;;10.15;2.53;;;30.80;33.70;;;;;;4360927;32;20156;-40
2021/07/29 06:18:01;;;;;;;5.28;1.80;;;30.70;33.60;;;;;;4301728;33;20091;-37
2021/07/29 06:20:28;;;;;;;5.35;1.58;;;30.60;33.60;;;;;;4313662;33;20457;-39
2021/07/29 06:22:55;;;;;;;4.32;1.35;;;30.40;34.00;;;;;;4314360;33;20071;-39
2021/07/29 06:25:21;;;;;;;3.25;1.65;;;30.30;34.60;;;;;;4313994;33;20102;-39
2021/07/29 06:27:49;;;;;;;7.82;1.30;;;30.10;35.20;;;;;;4313862;33;20069;-39
2021/07/29 06:30:16;;;;;;;2.28;1.33;;;30.10;35.90;;;;;;4314161;33;20098;-39
2021/07/29 06:32:43;;;;;;;3.85;0.90;;;30.00;36.40;;;;;;4313843;33;20129;-38
2021/07/29 06:35:10;;;;;;;5.32;1.67;;;30.00;37.00;;;;;;4313629;33;20584;-38
2021/07/29 06:37:37;;;;;;;5.20;1.52;;;30.10;37.10;;;;;;4284506;33;20163;-38
2021/07/29 06:40:05;;;;;;;4.45;1.12;;;30.10;37.20;;;;;;4285201;33;20083;-39
2021/07/29 06:42:32;;;;;;;3.65;1.30;;;30.20;37.40;;;;;;4273103;33;20106;-39
2021/07/29 06:44:58;;;;;;;6.62;1.48;;;30.20;37.60;;;;;;4272447;33;20511;-39
2021/07/29 06:47:26;;;;;;;2.72;1.33;;;30.20;37.50;;;;;;4272607;33;20092;-39
2021/07/29 06:49:53;;;;;;;7.70;1.10;;;30.30;36.30;;;;;;4322391;33;20071;-40
2021/07/29 06:52:20;;;;;;;3.08;1.10;;;30.30;36.10;;;;;;4328235;33;20460;-39
2021/07/29 06:54:46;;;;;;;2.90;0.98;;;30.30;36.90;;;;;;4328351;33;20068;-39
2021/07/29 06:57:12;;;;;;;3.05;1.17;;;30.40;37.10;;;;;;4328364;33;20633;-38
2021/07/29 06:59:39;;;;;;;4.75;1.40;;;30.40;36.90;;;;;;4340661;33;20156;-39
2021/07/29 07:02:06;;;;;;;4.65;1.00;;;30.50;36.80;;;;;;4342781;33;20071;-39
2021/07/29 07:04:32;;;;;;;7.75;1.20;;;30.60;36.30;;;;;;4342901;33;20110;-39
2021/07/29 07:06:59;;;;;;;2.83;0.90;;;30.70;35.70;;;;;;4342992;33;20087;-39
2021/07/29 07:09:25;;;;;;;3.28;1.77;;;30.70;35.60;;;;;;4342673;33;20075;-39
2021/07/29 07:11:51;;;;;;;3.67;1.27;;;30.70;35.50;;;;;;4342813;32;20183;-38
2021/07/29 07:14:18;;;;;;;5.53;1.25;;;30.70;35.30;;;;;;4346089;32;20144;-38
2021/07/29 07:16:44;;;;;;;1.80;1.00;;;30.70;35.20;;;;;;4359997;32;20089;-40
2021/07/29 07:19:11;;;;;;;5.35;0.93;;;30.70;35.20;;;;;;4359896;32;20105;-39
2021/07/29 07:21:38;;;;;;;5.47;1.17;;;30.70;35.00;;;;;;4360135;32;20059;-39
2021/07/29 07:24:06;;;;;;;6.60;1.30;;;30.70;35.20;;;;;;4359735;32;20135;-39
2021/07/29 07:26:33;;;;;;;7.45;1.20;;;30.70;35.30;;;;;;4359452;32;20252;-38
2021/07/29 07:28:59;;;;;;;4.28;1.17;;;30.60;35.20;;;;;;4359527;32;20106;-38
2021/07/29 07:31:26;;;;;;;4.47;1.80;;;30.60;35.50;;;;;;4359894;32;20057;-39
2021/07/29 07:33:52;;;;;;;3.25;1.75;;;30.40;36.50;;;;;;4359999;32;20522;-38
2021/07/29 07:36:20;;;;;;;5.70;1.73;;;30.40;36.80;;;;;;4359654;32;20109;-39
2021/07/29 07:38:52;;;;;;;4.20;1.20;;;30.50;37.10;;;;;;4359794;32;20074;-39
2021/07/29 07:41:19;;;;;;;4.00;1.40;;;30.60;36.60;;;;;;4359624;32;20084;-39
2021/07/29 07:43:45;;;;;;;7.18;1.23;;;30.70;37.00;;;;;;4359613;32;20640;-39
2021/07/29 07:46:12;;;;;;;4.47;2.00;;;30.80;36.90;;;;;;4359163;32;20062;-40
2021/07/29 07:48:38;;;;;;;5.25;1.25;;;30.90;36.50;;;;;;4359453;32;20094;-38
2021/07/29 07:51:05;;;;;;;6.72;1.10;;;31.00;35.60;;;;;;4357189;32;20065;-39
2021/07/29 07:53:31;;;;;;;8.73;1.40;;;31.00;36.30;;;;;;4344230;32;20095;-40
2021/07/29 07:56:02;;;;;;;7.80;1.60;;;31.10;35.90;;;;;;4343058;33;20558;-40
2021/07/29 07:58:29;;;;;;;3.22;1.25;;;31.20;35.90;;;;;;4343169;33;20058;-38
2021/07/29 08:00:56;;;;;;;2.33;1.12;;;31.20;36.40;;;;;;4344489;32;20217;-38
2021/07/29 08:03:22;;;;;;;1.70;1.45;;;31.20;37.00;;;;;;4344261;32;20145;-40
2021/07/29 08:05:49;;;;;;;5.05;1.35;;;31.20;37.50;;;;;;4344564;32;20088;-38
2021/07/29 08:08:15;;;;;;;3.65;1.70;;;31.20;36.60;;;;;;4344379;32;20078;-39
2021/07/29 08:10:41;;;;;;;5.97;1.50;;;31.20;36.60;;;;;;4344002;33;20466;-39
2021/07/29 08:13:08;;;;;;;6.37;1.58;;;31.30;37.20;;;;;;4344250;32;20062;-39
2021/07/29 08:15:36;;;;;;;8.32;1.62;;;31.40;37.00;;;;;;4344261;32;20066;-38
2021/07/29 08:18:02;;;;;;;2.20;1.10;;;31.60;37.30;;;;;;4344299;32;20091;-38
2021/07/29 08:20:29;;;;;;;4.32;1.60;;;31.80;36.50;;;;;;4344408;32;20065;-38
2021/07/29 08:22:56;;;;;;;4.30;1.30;;;32.00;36.00;;;;;;4344050;32;20110;-39
2021/07/29 08:25:22;;;;;;;3.80;1.30;;;32.30;34.90;;;;;;4343434;32;20063;-39
2021/07/29 08:27:49;;;;;;;1.73;1.10;;;32.40;34.50;;;;;;4344272;32;20066;-37
2021/07/29 08:30:16;;;;;;;4.12;1.30;;;32.60;34.40;;;;;;4344324;32;20067;-37
2021/07/29 08:32:43;;;;;;;3.97;1.55;;;32.80;34.10;;;;;;4344002;32;20082;-37
2021/07/29 08:35:13;;;;;;;2.12;1.35;;;33.00;34.00;;;;;;4344154;32;20075;-38
2021/07/29 08:37:46;;;;;;;5.62;1.42;;;33.20;32.70;;;;;;4344240;32;20074;-38
2021/07/29 08:40:18;;;;;;;7.75;1.55;;;33.30;32.60;;;;;;4344511;32;20086;-38
2021/07/29 08:42:46;;;;;;;5.55;1.83;;;33.50;32.30;;;;;;4343762;32;20062;-38
2021/07/29 08:45:13;;;;;;;2.37;1.10;;;33.70;32.00;;;;;;4344373;32;20201;-38
2021/07/29 08:47:44;;;;;;;2.05;0.90;;;33.90;31.70;;;;;;4342329;33;20479;-39
2021/07/29 08:50:11;;;;;;;3.00;1.02;;;34.30;31.10;;;;;;4344228;32;20101;-39
2021/07/29 08:52:38;;;;;;;3.42;1.10;;;34.60;30.90;;;;;;4343475;32;20057;-39
2021/07/29 08:55:05;;;;;;;4.00;1.02;;;34.80;30.20;;;;;;4342519;33;20107;-38
2021/07/29 08:57:33;;;;;;;3.67;1.10;;;35.00;30.80;;;;;;4343990;33;20078;-37
2021/07/29 09:00:08;;;;;;;4.57;1.27;;;35.20;30.00;;;;;;4358556;32;20075;-38
2021/07/29 09:02:34;;;;;;;7.20;1.55;;;35.20;30.00;;;;;;4358512;32;20515;-38
2021/07/29 09:05:17;;;;;;;3.85;1.42;;;35.20;30.00;;;;;;4358075;32;20074;-37
2021/07/29 09:08:04;;;;;;;3.87;1.42;;;35.30;30.00;;;;;;4358420;32;20066;-39
2021/07/29 09:10:31;;;;;;;8.98;1.35;;;35.20;30.10;;;;;;4344364;32;20495;-39
2021/07/29 09:13:08;;;;;;;5.15;1.40;;;35.20;30.20;;;;;;4344230;32;20070;-38
2021/07/29 09:15:35;;;;;;;5.05;1.10;;;35.10;30.60;;;;;;4358064;32;20078;-38
2021/07/29 09:18:02;;;;;;;4.70;1.17;;;34.90;30.70;;;;;;4358297;32;20149;-38
2021/07/29 09:20:29;;;;;;;4.43;1.10;;;34.80;30.90;;;;;;4358358;32;20093;-39
2021/07/29 09:22:55;;;;;;;4.12;1.10;;;34.60;31.00;;;;;;4358200;32;20078;-39
2021/07/29 09:25:26;;;;;;;5.20;0.90;;;34.40;31.10;;;;;;4357907;32;20082;-39
2021/07/29 09:27:53;;;;;;;2.12;1.23;;;34.30;30.80;;;;;;4358761;32;20069;-38
2021/07/29 09:30:33;;;;;;;2.40;0.90;;;34.20;30.80;;;;;;4344424;32;20055;-39
2021/07/29 09:33:15;;;;;;;3.97;1.17;;;34.20;30.80;;;;;;4358342;32;20629;-37
2021/07/29 09:35:50;;;;;;;1.55;0.93;;;34.20;30.80;;;;;;4356645;32;20074;-38
2021/07/29 09:38:31;;;;;;;2.47;1.10;;;34.10;30.50;;;;;;4344614;32;20066;-38
2021/07/29 09:41:06;;;;;;;1.62;1.20;;;34.00;30.50;;;;;;4358125;32;20097;-38
2021/07/29 09:43:36;;;;;;;1.83;0.90;;;34.00;30.80;;;;;;4357635;32;20055;-37
2021/07/29 09:46:14;;;;;;;3.90;1.17;;;33.90;30.90;;;;;;4357947;32;20078;-39
2021/07/29 09:48:42;;;;;;;2.58;1.30;;;33.90;31.10;;;;;;4358400;32;20198;-39
2021/07/29 09:51:09;;;;;;;2.22;1.40;;;33.80;31.40;;;;;;4341691;32;20142;-39
2021/07/29 09:53:36;;;;;;;1.30;0.88;;;33.90;31.50;;;;;;4329491;33;20065;-39
2021/07/29 09:56:10;;;;;;;8.15;1.60;;;33.90;31.20;;;;;;4343206;33;20082;-40
2021/07/29 09:58:40;;;;;;;2.33;1.10;;;33.90;31.60;;;;;;4348876;32;20066;-39
2021/07/29 10:01:10;;;;;;;3.58;1.20;;;33.90;31.40;;;;;;4344171;32;20155;-39
2021/07/29 10:03:43;;;;;;;3.08;1.00;;;33.90;31.20;;;;;;4358100;32;20176;-39
2021/07/29 10:06:20;;;;;;;3.37;1.08;;;33.90;31.10;;;;;;4344112;32;20082;-38
2021/07/29 10:08:58;;;;;;;1.30;0.93;;;33.90;31.30;;;;;;4344214;32;20067;-38
2021/07/29 10:11:30;;;;;;;3.10;1.10;;;33.90;31.60;;;;;;4358074;32;20058;-39
2021/07/29 10:13:57;;;;;;;2.35;1.08;;;33.90;31.60;;;;;;4344025;32;20054;-39
2021/07/29 10:16:49;;;;;;;2.55;1.00;;;34.00;31.00;;;;;;4343721;32;20502;-38
2021/07/29 10:19:16;;;;;;;5.37;1.75;;;34.10;30.80;;;;;;4358236;32;20137;-39
2021/07/29 10:21:44;;;;;;;3.87;1.45;;;34.20;30.60;;;;;;4343961;32;20081;-38
2021/07/29 10:24:11;;;;;;;3.15;1.25;;;34.40;30.80;;;;;;4343804;32;20070;-39
2021/07/29 10:26:59;;;;;;;2.50;1.30;;;34.50;30.10;;;;;;4357806;32;20127;-39
2021/07/29 10:29:30;;;;;;;2.25;1.30;;;34.60;30.10;;;;;;4357871;32;20070;-38
2021/07/29 10:32:11;;;;;;;5.25;1.23;;;34.80;30.00;;;;;;4357981;32;20146;-39
2021/07/29 10:34:38;;;;;;;4.10;1.40;;;34.80;29.80;;;;;;4358017;32;20082;-39
2021/07/29 10:37:08;;;;;;;4.03;1.10;;;35.00;29.60;;;;;;4357710;32;20486;-39
2021/07/29 10:40:00;;;;;;;2.40;1.12;;;35.00;29.70;;;;;;4357757;32;20090;-40
2021/07/29 10:42:30;;;;;;;4.57;1.25;;;35.20;29.40;;;;;;4358052;32;20090;-38
2021/07/29 10:44:57;;;;;;;3.83;1.50;;;35.30;29.40;;;;;;4357818;32;20154;-38
2021/07/29 10:47:38;;;;;;;3.40;1.35;;;35.30;29.60;;;;;;4358419;32;20077;-38
2021/07/29 10:50:10;;;;;;;2.05;1.23;;;35.40;29.50;;;;;;4346920;32;20110;-38
2021/07/29 10:52:37;;;;;;;2.00;1.25;;;35.40;29.50;;;;;;4349030;32;20507;-39
2021/07/29 10:55:04;;;;;;;4.93;1.27;;;35.50;29.50;;;;;;4332153;33;20170;-39
2021/07/29 10:57:31;;;;;;;2.87;1.15;;;35.60;29.30;;;;;;4331132;33;20070;-38
2021/07/29 10:59:59;;;;;;;2.22;1.20;;;35.70;29.40;;;;;;4346059;32;20054;-38
2021/07/29 11:02:48;;;;;;;6.10;1.37;;;35.70;29.30;;;;;;4346685;32;20062;-39
2021/07/29 11:05:26;;;;;;;2.47;1.30;;;35.70;29.40;;;;;;4359865;32;20066;-38
2021/07/29 11:07:52;;;;;;;4.50;1.40;;;35.70;29.40;;;;;;4360353;32;20521;-39
2021/07/29 11:10:24;;;;;;;1.45;1.10;;;35.70;29.40;;;;;;4346463;32;20077;-38
2021/07/29 11:12:50;;;;;;;3.25;1.12;;;35.80;29.30;;;;;;4346711;32;20132;-39
2021/07/29 11:15:17;;;;;;;3.30;1.25;;;35.90;29.00;;;;;;4359896;32;20523;-39
2021/07/29 11:17:43;;;;;;;1.60;1.12;;;36.00;28.50;;;;;;4346192;32;20188;-39
2021/07/29 11:20:10;;;;;;;4.12;1.08;;;36.10;28.20;;;;;;4360284;32;20064;-39
2021/07/29 11:22:47;;;;;;;3.70;1.30;;;36.20;28.10;;;;;;4359808;32;20049;-39
2021/07/29 11:25:15;;;;;;;1.85;1.42;;;36.40;28.20;;;;;;4327225;33;20186;-38
2021/07/29 11:27:41;;;;;;;2.42;1.58;;;36.40;27.80;;;;;;4327487;33;20200;-38
2021/07/29 11:30:08;;;;;;;3.05;1.20;;;36.60;27.70;;;;;;4327411;33;20102;-38
2021/07/29 11:32:39;;;;;;;1.98;1.23;;;36.70;27.50;;;;;;4315480;33;20090;-38
2021/07/29 11:35:17;;;;;;;3.15;1.00;;;36.70;27.50;;;;;;4328001;33;20470;-38
2021/07/29 11:37:47;;;;;;;2.92;1.45;;;36.70;27.40;;;;;;4327828;33;20598;-39
2021/07/29 11:40:24;;;;;;;2.53;0.93;;;36.80;27.40;;;;;;4327221;33;20126;-39
2021/07/29 11:42:51;;;;;;;6.35;1.10;;;36.80;27.50;;;;;;4327960;33;20070;-38
2021/07/29 11:45:22;;;;;;;2.92;1.10;;;36.60;27.60;;;;;;4327057;33;20078;-38
2021/07/29 11:47:49;;;;;;;4.72;1.60;;;36.40;27.70;;;;;;4327777;33;20071;-38
2021/07/29 11:50:15;;;;;;;2.50;1.20;;;36.10;28.00;;;;;;4315037;33;20087;-39
2021/07/29 11:52:52;;;;;;;3.20;1.10;;;35.90;28.10;;;;;;4315434;33;20164;-40
2021/07/29 11:55:20;;;;;;;2.95;1.10;;;35.80;28.20;;;;;;4329549;33;20597;-38
2021/07/29 11:57:47;;;;;;;2.58;1.08;;;35.80;28.30;;;;;;4331836;32;20063;-38
2021/07/29 12:00:16;;;;;;;1.40;1.10;;;35.90;28.30;;;;;;4358732;32;20097;-37
2021/07/29 12:02:43;;;;;;;3.08;1.20;;;36.10;28.20;;;;;;4359721;32;20154;-38
2021/07/29 12:05:10;;;;;;;3.17;1.35;;;36.30;28.20;;;;;;4359663;32;20062;-38
2021/07/29 12:07:36;;;;;;;3.65;1.10;;;36.40;28.00;;;;;;4345733;32;20077;-37
2021/07/29 12:10:05;;;;;;;3.00;1.00;;;36.60;27.80;;;;;;4345362;32;20078;-37
2021/07/29 12:12:31;;;;;;;3.08;1.48;;;36.70;27.80;;;;;;4359205;32;20514;-37
2021/07/29 12:14:58;;;;;;;2.97;1.08;;;36.80;27.80;;;;;;4359097;32;20549;-38
2021/07/29 12:17:25;;;;;;;2.05;1.27;;;36.90;27.80;;;;;;4359688;32;20098;-38
2021/07/29 12:19:58;;;;;;;2.95;2.20;;;37.00;27.70;;;;;;4359677;32;20598;-38
2021/07/29 12:22:28;;;;;;;2.90;1.27;;;37.20;27.80;;;;;;4345689;32;20574;-38
2021/07/29 12:24:56;;;;;;;5.37;1.30;;;37.30;27.50;;;;;;4359369;32;20077;-36
2021/07/29 12:27:22;;;;;;;3.90;1.10;;;37.50;27.40;;;;;;4345415;32;20062;-38
2021/07/29 12:29:49;;;;;;;7.70;1.58;;;37.50;27.30;;;;;;4341242;33;20102;-38
2021/07/29 12:32:27;;;;;;;3.65;1.08;;;37.60;27.40;;;;;;4341782;33;20148;-38
2021/07/29 12:34:54;;;;;;;4.82;1.45;;;37.80;27.40;;;;;;4342061;33;20499;-38
2021/07/29 12:37:37;;;;;;;2.33;1.10;;;37.80;27.30;;;;;;4329762;33;20154;-37
2021/07/29 12:40:05;;;;;;;3.50;1.20;;;37.90;27.30;;;;;;4341441;33;20061;-39
2021/07/29 12:42:32;;;;;;;2.30;1.17;;;38.00;27.30;;;;;;4329258;33;20081;-38
2021/07/29 12:45:08;;;;;;;3.55;1.30;;;38.10;27.30;;;;;;4341697;33;20067;-37
2021/07/29 12:47:34;;;;;;;2.25;0.90;;;38.20;27.20;;;;;;4341477;33;20550;-38
2021/07/29 12:50:02;;;;;;;3.78;1.80;;;38.30;27.20;;;;;;4329281;33;20094;-37